Time;durP1;ratioP1;P1;durP2;ratioP2;P2;SDS_P1;SDS_P2;PMS_P1;PMS_P2;Temp;Humidity;BMP_temperature;BMP_pressure;BME280_temperature;BME280_humidity;BME280_pressure;Samples;Min_cycle;Max_cycle;Signal;HPM_P1;HPM_P2
2021/05/26 00:00:18;;;;;;;15.30;8.03;;;;;;;8.36;71.12;99011.49;2148322;82;21180;-81
2021/05/26 00:03:20;;;;;;;19.50;8.97;;;;;;;8.29;71.61;99016.94;2135834;83;20930;-80
2021/05/26 00:06:22;;;;;;;15.67;6.77;;;;;;;8.23;71.34;99013.77;2148055;82;21186;-81
2021/05/26 00:09:22;;;;;;;18.50;7.50;;;;;;;8.17;71.43;99021.42;2148110;82;21286;-81
2021/05/26 00:12:23;;;;;;;16.53;6.30;;;;;;;8.11;71.51;99029.50;2148143;82;21077;-83
2021/05/26 00:15:24;;;;;;;11.47;5.83;;;;;;;8.05;71.65;99031.53;2148257;82;21076;-82
2021/05/26 00:18:25;;;;;;;13.77;6.50;;;;;;;8.00;71.97;99033.14;2148597;83;21342;-81
2021/05/26 00:21:26;;;;;;;14.47;6.70;;;;;;;7.96;71.99;99033.90;2148308;83;21334;-81
2021/05/26 00:24:27;;;;;;;16.67;6.97;;;;;;;7.93;72.24;99039.02;2148619;83;20943;-81
2021/05/26 00:27:29;;;;;;;13.97;7.17;;;;;;;7.91;72.83;99042.00;2148393;83;20954;-83
2021/05/26 00:30:33;;;;;;;17.27;7.83;;;;;;;7.89;72.88;99044.98;2148627;82;20931;-81
2021/05/26 00:33:33;;;;;;;20.47;8.77;;;;;;;7.87;73.33;99047.55;2148704;82;20982;-81
2021/05/26 00:36:34;;;;;;;13.30;8.30;;;;;;;7.86;73.44;99048.80;2148389;83;20954;-81
2021/05/26 00:39:35;;;;;;;21.53;7.90;;;;;;;7.86;73.60;99048.38;2148570;82;20930;-80
2021/05/26 00:42:36;;;;;;;16.20;7.90;;;;;;;7.85;74.05;99056.14;2148801;83;20983;-81
2021/05/26 00:45:37;;;;;;;16.03;8.97;;;;;;;7.83;73.98;99056.52;2148340;83;21141;-82
2021/05/26 00:48:38;;;;;;;14.27;7.93;;;;;;;7.84;74.37;99059.58;2148725;82;20942;-82
2021/05/26 00:51:39;;;;;;;12.57;7.87;;;;;;;7.80;74.21;99059.92;2148528;83;20954;-82
2021/05/26 00:54:40;;;;;;;19.67;10.70;;;;;;;7.79;74.23;99066.34;2148605;82;20930;-79
2021/05/26 00:57:41;;;;;;;15.50;7.93;;;;;;;7.79;74.40;99063.74;2177758;82;20951;-81
2021/05/26 01:00:42;;;;;;;14.00;7.77;;;;;;;7.78;74.31;99064.58;2148583;82;21057;-80
2021/05/26 01:03:43;;;;;;;15.03;8.60;;;;;;;7.77;74.60;99065.42;2177732;82;21038;-81
2021/05/26 01:06:44;;;;;;;12.03;7.77;;;;;;;7.76;74.31;99072.76;2148356;83;21073;-81
2021/05/26 01:09:46;;;;;;;14.47;8.27;;;;;;;7.72;74.50;99071.80;2177723;82;21033;-83
2021/05/26 01:12:48;;;;;;;14.27;7.67;;;;;;;7.72;74.55;99077.41;2148432;82;21104;-82
2021/05/26 01:15:50;;;;;;;13.97;7.13;;;;;;;7.68;74.77;99078.63;2177745;82;20971;-81
2021/05/26 01:18:51;;;;;;;11.47;8.00;;;;;;;7.65;75.04;99076.38;2148420;82;20930;-81
2021/05/26 01:21:51;;;;;;;11.20;7.07;;;;;;;7.65;74.79;99081.56;2177698;82;20946;-81
2021/05/26 01:24:52;;;;;;;15.13;7.50;;;;;;;7.64;74.60;99080.69;2148466;82;21010;-80
2021/05/26 01:27:53;;;;;;;12.20;7.43;;;;;;;7.66;74.75;99088.52;2177561;82;21291;-81
2021/05/26 01:30:54;;;;;;;10.83;6.47;;;;;;;7.66;74.70;99093.72;2148583;82;21252;-80
2021/05/26 01:33:55;;;;;;;12.90;6.77;;;;;;;7.67;74.67;99087.27;2177839;82;21287;-83
2021/05/26 01:36:56;;;;;;;12.10;6.70;;;;;;;7.69;74.68;99086.01;2148520;82;21302;-80
2021/05/26 01:39:57;;;;;;;126.50;69.67;;;;;;;7.65;74.59;99085.46;2177794;82;21026;-81
2021/05/26 01:42:58;;;;;;;19.47;9.33;;;;;;;7.66;74.76;99089.41;2148376;82;20934;-81
2021/05/26 01:45:59;;;;;;;14.23;7.53;;;;;;;7.64;74.55;99087.18;2148138;82;21033;-81
2021/05/26 01:49:00;;;;;;;11.83;6.60;;;;;;;7.61;74.41;99080.61;2148473;82;20946;-81
2021/05/26 01:52:01;;;;;;;9.00;6.30;;;;;;;7.58;74.46;99080.52;2148490;82;20935;-82
2021/05/26 01:55:02;;;;;;;12.57;6.80;;;;;;;7.56;74.45;99082.62;2148369;82;20926;-83
2021/05/26 01:58:04;;;;;;;14.17;7.27;;;;;;;7.52;74.48;99077.75;2148184;82;20898;-81
2021/05/26 02:01:05;;;;;;;17.43;6.63;;;;;;;7.47;74.56;99076.75;2148178;82;21018;-82
2021/05/26 02:04:05;;;;;;;9.97;6.43;;;;;;;7.46;74.58;99069.80;2148318;83;20942;-77
2021/05/26 02:07:12;;;;;;;10.60;6.07;;;;;;;7.42;74.83;99069.67;2148233;83;20940;-81
2021/05/26 02:10:12;;;;;;;11.27;6.43;;;;;;;7.38;74.75;99070.42;2149280;82;21417;-81
2021/05/26 02:13:13;;;;;;;11.30;6.60;;;;;;;7.33;74.67;99068.58;2148673;82;21370;-84
2021/05/26 02:16:14;;;;;;;28.67;7.90;;;;;;;7.30;74.70;99063.30;2148461;83;20926;-81
2021/05/26 02:19:15;;;;;;;14.77;6.27;;;;;;;7.29;74.77;99065.43;2148136;82;21050;-82
2021/05/26 02:22:16;;;;;;;18.43;7.17;;;;;;;7.29;74.76;99069.74;2148706;82;20966;-82
2021/05/26 02:25:17;;;;;;;11.20;6.63;;;;;;;7.28;74.70;99071.46;2149033;82;20982;-83
2021/05/26 02:28:18;;;;;;;17.73;6.37;;;;;;;7.24;74.70;99070.91;2148610;83;21402;-81
2021/05/26 02:31:19;;;;;;;23.70;6.50;;;;;;;7.22;74.49;99078.19;2148337;82;21290;-82
2021/05/26 02:34:19;;;;;;;10.97;5.73;;;;;;;7.18;74.33;99078.94;2148334;83;20954;-83
2021/05/26 02:37:21;;;;;;;11.00;6.33;;;;;;;7.06;74.28;99079.88;2148216;82;21053;-84
2021/05/26 02:40:21;;;;;;;52.43;29.03;;;;;;;7.02;74.91;99091.47;2148200;82;21373;-80
2021/05/26 02:43:23;;;;;;;21.47;8.97;;;;;;;6.99;74.83;99082.30;2177436;82;20982;-81
2021/05/26 02:46:24;;;;;;;19.63;6.97;;;;;;;7.00;74.96;99087.95;2148045;83;20993;-81
2021/05/26 02:49:25;;;;;;;10.20;5.93;;;;;;;6.99;74.82;99091.38;2177396;82;20919;-82
2021/05/26 02:52:25;;;;;;;16.63;7.53;;;;;;;7.03;75.18;99097.12;2148221;83;21335;-82
2021/05/26 02:55:27;;;;;;;13.33;7.00;;;;;;;7.09;75.17;99096.84;2178315;82;20974;-83
2021/05/26 02:58:28;;;;;;;22.30;6.40;;;;;;;7.13;75.70;99100.00;2148499;83;20993;-80
2021/05/26 03:01:29;;;;;;;18.40;8.40;;;;;;;7.16;75.26;99103.56;2178287;82;21018;-83
2021/05/26 03:04:30;;;;;;;13.40;6.07;;;;;;;7.22;75.46;99114.12;2148544;82;20969;-83
2021/05/26 03:07:31;;;;;;;14.50;6.27;;;;;;;7.28;75.33;99121.22;2177786;82;20962;-81
2021/05/26 03:10:32;;;;;;;12.33;5.93;;;;;;;7.30;75.28;99110.45;2148338;83;20994;-81
2021/05/26 03:13:33;;;;;;;11.63;6.20;;;;;;;7.33;75.18;99117.91;2179203;82;21057;-82
2021/05/26 03:16:34;;;;;;;10.50;6.20;;;;;;;7.37;75.23;99119.30;2150165;83;20998;-83
2021/05/26 03:19:35;;;;;;;11.57;5.77;;;;;;;7.43;75.19;99122.08;2187719;81;20958;-82
2021/05/26 03:22:36;;;;;;;8.40;5.70;;;;;;;7.47;75.10;99114.41;2150097;83;20926;-82
2021/05/26 03:25:37;;;;;;;46.07;7.70;;;;;;;7.53;75.06;99119.78;2187607;81;20978;-81
2021/05/26 03:28:38;;;;;;;14.43;6.07;;;;;;;7.56;75.08;99121.16;2150867;83;20955;-82
2021/05/26 03:31:39;;;;;;;10.57;5.47;;;;;;;7.61;74.89;99122.17;2187673;81;21050;-83
2021/05/26 03:34:40;;;;;;;12.43;5.93;;;;;;;7.69;74.77;99115.89;2149766;83;20938;-79
2021/05/26 03:37:41;;;;;;;12.93;5.90;;;;;;;7.80;74.60;99113.58;2187379;81;21021;-83
2021/05/26 03:40:42;;;;;;;19.43;5.97;;;;;;;7.89;74.42;99110.84;2149859;83;20946;-80
2021/05/26 03:43:43;;;;;;;15.43;5.80;;;;;;;8.00;74.19;99108.52;2187391;81;20993;-82
2021/05/26 03:46:44;;;;;;;10.23;6.00;;;;;;;8.09;73.88;99114.38;2149742;83;20982;-82
2021/05/26 03:49:45;;;;;;;23.07;6.77;;;;;;;8.16;73.76;99112.40;2187322;81;21378;-81
2021/05/26 03:52:46;;;;;;;7.80;5.40;;;;;;;8.21;73.55;99110.80;2149756;83;20962;-79
2021/05/26 03:55:47;;;;;;;9.47;5.37;;;;;;;8.26;73.40;99107.47;2187106;81;21339;-80
2021/05/26 03:58:48;;;;;;;12.30;8.43;;;;;;;8.31;73.25;99103.26;2149737;83;20952;-81
2021/05/26 04:01:49;;;;;;;11.57;9.27;;;;;;;8.34;73.19;99106.81;2187535;81;20994;-82
2021/05/26 04:04:50;;;;;;;22.67;17.87;;;;;;;8.45;73.09;99111.44;2150957;83;20986;-83
2021/05/26 04:07:51;;;;;;;30.83;27.57;;;;;;;8.57;72.92;99106.53;2186987;81;21058;-80
2021/05/26 04:10:52;;;;;;;21.10;12.87;;;;;;;8.75;72.86;99103.51;2150439;83;20977;-82
2021/05/26 04:13:54;;;;;;;19.50;7.50;;;;;;;8.99;72.46;99112.30;2176536;81;21011;-81
2021/05/26 04:16:55;;;;;;;15.60;6.67;;;;;;;9.30;72.08;99112.53;2170501;82;20955;-81
2021/05/26 04:20:02;;;;;;;12.37;6.17;;;;;;;9.62;71.43;99112.34;2170374;82;21030;-81
2021/05/26 04:22:59;;;;;;;21.67;9.83;;;;;;;9.89;70.66;99108.53;2169896;82;21062;-82
2021/05/26 04:26:00;;;;;;;21.67;9.93;;;;;;;10.05;69.78;99115.34;2170320;82;21034;-82
2021/05/26 04:29:01;;;;;;;19.93;12.10;;;;;;;10.16;68.70;99117.71;2170566;82;20963;-81
2021/05/26 04:32:02;;;;;;;15.40;6.70;;;;;;;10.31;68.62;99121.05;2170134;82;20966;-80
2021/05/26 04:35:03;;;;;;;18.80;6.57;;;;;;;10.48;68.33;99120.51;2170285;82;21264;-82
2021/05/26 04:38:04;;;;;;;8.80;4.80;;;;;;;10.72;67.81;99120.45;2170396;82;20954;-81
2021/05/26 04:41:06;;;;;;;8.48;5.50;;;;;;;10.93;66.26;99122.51;2170416;82;20915;-82
2021/05/26 04:44:07;;;;;;;41.92;21.10;;;;;;;11.05;65.86;99122.69;2170393;82;20990;-81
2021/05/26 04:47:08;;;;;;;429.90;128.45;;;;;;;11.17;65.79;99121.55;2112895;84;21081;-83
2021/05/26 04:50:09;;;;;;;42.65;11.83;;;;;;;11.99;67.21;99126.97;2112618;84;21065;-81
2021/05/26 04:53:10;;;;;;;15.53;8.13;;;;;;;13.48;62.12;99121.66;2148324;83;20934;-81
2021/05/26 04:56:11;;;;;;;12.00;5.15;;;;;;;13.15;61.50;99118.39;2112452;84;20982;-81
2021/05/26 04:59:13;;;;;;;7.70;4.05;;;;;;;12.90;60.93;99125.63;2112516;84;21286;-82
2021/05/26 05:02:14;;;;;;;10.40;4.37;;;;;;;12.82;60.15;99135.17;2112309;84;21408;-82
2021/05/26 05:05:15;;;;;;;8.30;4.15;;;;;;;12.62;60.38;99146.80;2112799;84;21010;-84
2021/05/26 05:08:16;;;;;;;18.50;4.20;;;;;;;12.52;59.68;99144.97;2112810;84;21027;-83
2021/05/26 05:11:17;;;;;;;7.95;4.45;;;;;;;12.33;59.91;99142.19;2112829;84;20956;-80
2021/05/26 05:14:19;;;;;;;8.63;4.67;;;;;;;12.24;60.68;99133.37;2138457;82;21457;-81
2021/05/26 05:17:19;;;;;;;16.32;5.53;;;;;;;12.31;60.68;99137.36;2185871;81;20962;-80
2021/05/26 05:20:22;;;;;;;15.35;6.47;;;;;;;12.50;60.65;99144.95;2156863;82;21065;-80
2021/05/26 05:23:23;;;;;;;28.70;11.12;;;;;;;12.80;60.48;99143.45;2148536;82;20953;-80
2021/05/26 05:26:24;;;;;;;22.98;12.90;;;;;;;13.01;59.96;99136.66;2177926;82;20954;-80
2021/05/26 05:29:25;;;;;;;7.37;4.22;;;;;;;13.26;59.47;99134.22;2148011;83;20961;-81
2021/05/26 05:32:26;;;;;;;12.93;4.65;;;;;;;13.35;58.59;99127.72;2147866;83;20970;-79
2021/05/26 05:35:28;;;;;;;14.65;5.12;;;;;;;13.50;58.12;99128.22;2148194;83;20947;-81
2021/05/26 05:38:29;;;;;;;10.15;4.17;;;;;;;13.79;58.17;99129.66;2148596;83;20946;-80
2021/05/26 05:41:30;;;;;;;7.78;3.40;;;;;;;14.04;57.39;99126.26;2148307;82;20951;-80
2021/05/26 05:44:32;;;;;;;5.37;3.20;;;;;;;14.17;55.70;99125.41;2147433;83;21114;-78
2021/05/26 05:47:34;;;;;;;8.95;3.30;;;;;;;14.14;53.64;99133.72;2148255;82;21002;-80
2021/05/26 05:50:35;;;;;;;19.75;4.85;;;;;;;14.27;55.82;99140.74;2147316;82;21374;-81
2021/05/26 05:53:36;;;;;;;7.58;3.52;;;;;;;14.51;54.85;99141.24;2148371;82;21046;-80
2021/05/26 05:56:37;;;;;;;12.00;4.15;;;;;;;14.76;54.01;99139.53;2148475;82;21703;-80
2021/05/26 05:59:38;;;;;;;7.55;3.62;;;;;;;15.28;53.25;99132.01;2148353;83;20959;-80
2021/05/26 06:02:39;;;;;;;14.05;3.90;;;;;;;15.28;53.25;99132.01;2148351;83;20927;-80
2021/05/26 06:05:42;;;;;;;11.35;3.55;;;;;;;15.49;52.84;99123.62;2148420;82;20934;-79
2021/05/26 06:08:43;;;;;;;8.10;3.72;;;;;;;15.67;50.21;99135.45;2148797;83;21381;-81
2021/05/26 06:11:45;;;;;;;11.78;3.62;;;;;;;15.76;51.29;99131.47;2148509;82;21066;-80
2021/05/26 06:14:46;;;;;;;9.03;3.00;;;;;;;15.90;49.84;99130.96;2149670;82;21481;-79
2021/05/26 06:17:47;;;;;;;7.97;3.72;;;;;;;15.95;49.74;99129.63;2149717;83;20994;-79
2021/05/26 06:20:48;;;;;;;10.43;4.20;;;;;;;15.94;49.25;99129.19;2149301;83;21418;-80
2021/05/26 06:23:49;;;;;;;35.45;4.70;;;;;;;15.99;49.78;99122.58;2150134;83;20946;-80
2021/05/26 06:26:50;;;;;;;11.43;3.27;;;;;;;16.05;49.45;99120.78;2150310;83;21070;-80
2021/05/26 06:29:51;;;;;;;7.45;3.17;;;;;;;16.14;48.92;99118.55;2149980;83;20934;-79
2021/05/26 06:32:52;;;;;;;7.10;3.02;;;;;;;16.27;49.24;99116.26;2150238;82;21018;-79
2021/05/26 06:35:53;;;;;;;9.18;2.98;;;;;;;16.30;47.27;99116.69;2150030;83;21005;-79
2021/05/26 06:38:54;;;;;;;10.75;3.90;;;;;;;16.26;46.69;99107.92;2149694;83;20993;-79
2021/05/26 06:41:55;;;;;;;5.78;3.20;;;;;;;16.32;47.53;99116.23;2149631;83;20970;-80
2021/05/26 06:44:56;;;;;;;11.70;3.58;;;;;;;16.40;47.71;99117.92;2149457;83;21771;-77
2021/05/26 06:47:57;;;;;;;5.20;3.17;;;;;;;16.60;45.27;99110.34;2148806;82;21385;-79
2021/05/26 06:50:58;;;;;;;8.63;3.62;;;;;;;16.80;46.44;99111.08;2149347;82;21374;-80
2021/05/26 06:54:00;;;;;;;7.10;3.05;;;;;;;16.88;44.43;99110.56;2150257;82;21338;-80
2021/05/26 06:57:01;;;;;;;7.85;2.83;;;;;;;16.93;45.67;99099.53;2150848;82;20953;-80
2021/05/26 07:00:02;;;;;;;10.30;2.90;;;;;;;17.17;45.62;99108.52;2150459;83;20978;-81
2021/05/26 07:03:03;;;;;;;10.00;3.40;;;;;;;17.29;44.89;99104.00;2150391;82;21030;-79
2021/05/26 07:06:04;;;;;;;8.93;2.98;;;;;;;17.50;44.04;99095.86;2150001;82;20974;-80
2021/05/26 07:09:05;;;;;;;12.10;3.35;;;;;;;17.63;42.66;99100.09;2151060;82;21074;-81
2021/05/26 07:12:06;;;;;;;13.75;3.77;;;;;;;17.80;43.74;99102.11;2151173;83;21044;-81
2021/05/26 07:15:08;;;;;;;11.63;3.50;;;;;;;18.09;43.34;99097.75;2151145;81;21104;-82
2021/05/26 07:18:09;;;;;;;15.53;3.40;;;;;;;18.42;42.26;99099.48;2150931;82;20930;-82
2021/05/26 07:21:14;;;;;;;27.32;4.05;;;;;;;18.55;41.75;99093.11;2150651;82;21069;-82
2021/05/26 07:24:15;;;;;;;7.53;3.25;;;;;;;18.85;41.66;99101.00;2150170;82;20986;-79
2021/05/26 07:27:16;;;;;;;11.48;3.27;;;;;;;19.25;41.17;99098.98;2150756;82;20966;-82
2021/05/26 07:30:17;;;;;;;7.10;2.92;;;;;;;19.20;39.82;99095.55;2150267;83;20986;-79
2021/05/26 07:33:18;;;;;;;6.62;2.40;;;;;;;19.26;39.72;99103.38;2150786;83;20985;-82
2021/05/26 07:39:24;;;;;;;9.98;3.00;;;;;;;19.87;39.55;99100.84;2134585;83;21033;-82
2021/05/26 07:42:24;;;;;;;6.08;2.10;;;;;;;20.04;38.57;99096.08;2151285;82;21034;-81
2021/05/26 07:45:26;;;;;;;5.35;2.30;;;;;;;20.04;37.36;99105.35;2151309;81;21100;-81
2021/05/26 07:48:27;;;;;;;4.87;2.50;;;;;;;19.88;38.55;99094.64;2151235;83;21375;-83
2021/05/26 07:51:33;;;;;;;1.98;1.60;;;;;;;19.93;36.88;99094.95;2150747;83;21001;-82
2021/05/26 07:54:33;;;;;;;6.87;2.20;;;;;;;20.04;36.98;99085.02;2151276;82;21042;-82
2021/05/26 08:00:37;;;;;;;7.20;2.33;;;;;;;19.80;36.34;99080.69;2134672;83;21014;-80
2021/05/26 08:03:38;;;;;;;7.37;2.55;;;;;;;19.91;37.66;99071.60;2150571;82;21149;-81
2021/05/26 08:06:39;;;;;;;10.23;2.20;;;;;;;20.12;36.88;99070.73;2151203;82;21065;-83
2021/05/26 08:09:40;;;;;;;9.35;2.33;;;;;;;20.02;35.62;99067.42;2151159;82;21058;-81
2021/05/26 08:12:42;;;;;;;7.50;2.42;;;;;;;19.77;34.57;99068.38;2151134;82;21025;-82
2021/05/26 08:15:43;;;;;;;20.17;2.27;;;;;;;19.43;35.94;99065.54;2150560;82;21085;-80
2021/05/26 08:18:44;;;;;;;13.13;2.35;;;;;;;19.53;36.24;99072.88;2150552;83;21364;-82
2021/05/26 08:21:45;;;;;;;10.32;2.40;;;;;;;19.55;36.18;99062.67;2150628;82;21025;-82
2021/05/26 08:24:46;;;;;;;8.95;1.98;;;;;;;19.68;35.67;99065.48;2150887;83;20942;-83
2021/05/26 08:27:47;;;;;;;4.47;1.40;;;;;;;19.87;34.73;99058.45;2150784;82;21039;-81
2021/05/26 08:30:48;;;;;;;3.37;1.67;;;;;;;19.87;35.95;99067.28;2150728;83;21039;-82
2021/05/26 08:33:49;;;;;;;6.37;1.70;;;;;;;19.93;36.55;99061.84;2150833;82;21021;-83
2021/05/26 08:36:50;;;;;;;29.82;3.12;;;;;;;20.10;35.33;99064.14;2151176;83;21034;-84
2021/05/26 08:39:51;;;;;;;23.35;2.20;;;;;;;20.23;35.03;99056.31;2151281;82;20934;-81
2021/05/26 08:42:52;;;;;;;3.20;1.87;;;;;;;20.51;35.06;99069.81;2150403;83;20907;-82
2021/05/26 08:45:53;;;;;;;5.58;1.87;;;;;;;20.50;35.18;99057.91;2150344;82;21018;-85
2021/05/26 08:48:57;;;;;;;2.83;1.60;;;;;;;20.60;35.32;99058.97;2150900;82;21044;-83
2021/05/26 08:51:58;;;;;;;4.00;1.62;;;;;;;20.72;33.65;99045.85;2150835;82;21010;-82
2021/05/26 08:54:58;;;;;;;3.90;1.60;;;;;;;20.73;33.71;99050.25;2151184;82;20919;-82
2021/05/26 08:58:00;;;;;;;3.55;1.57;;;;;;;20.82;33.95;99047.84;2150835;82;21014;-81
2021/05/26 09:01:00;;;;;;;6.97;1.50;;;;;;;20.85;33.48;99047.31;2151087;82;20981;-81
2021/05/26 09:04:02;;;;;;;5.45;1.80;;;;;;;21.12;33.50;99040.84;2151128;82;21081;-83
2021/05/26 09:07:03;;;;;;;3.17;1.60;;;;;;;20.83;33.27;99039.84;2150440;82;20970;-82
2021/05/26 09:10:04;;;;;;;8.23;1.60;;;;;;;20.90;33.63;99045.41;2150791;82;20965;-82
2021/05/26 09:13:05;;;;;;;4.62;1.57;;;;;;;20.60;32.72;99040.41;2150464;83;21378;-82
2021/05/26 09:16:06;;;;;;;6.67;1.90;;;;;;;20.54;32.63;99032.61;2149999;82;21457;-79
2021/05/26 09:19:09;;;;;;;4.65;1.52;;;;;;;20.78;32.61;99040.39;2150407;83;20946;-82
2021/05/26 09:22:10;;;;;;;9.03;1.80;;;;;;;20.90;33.10;99031.27;2150607;83;21142;-81
2021/05/26 09:25:11;;;;;;;6.78;1.82;;;;;;;21.01;31.99;99029.64;2153309;82;20926;-81
2021/05/26 09:28:12;;;;;;;7.60;1.98;;;;;;;21.18;31.70;99026.07;2162846;81;20986;-82
2021/05/26 09:31:13;;;;;;;5.72;1.60;;;;;;;21.30;30.71;99028.41;2153836;81;20917;-81
2021/05/26 09:34:14;;;;;;;8.30;1.90;;;;;;;20.79;30.96;99024.88;2129332;83;20994;-81
2021/05/26 09:37:15;;;;;;;5.80;1.62;;;;;;;20.62;31.66;99026.66;2161012;81;21848;-81
2021/05/26 09:40:16;;;;;;;4.90;1.60;;;;;;;20.42;31.94;99020.98;2125957;83;20947;-80
2021/05/26 09:43:17;;;;;;;13.28;1.85;;;;;;;20.60;32.79;99016.99;2150828;83;21509;-81
2021/05/26 09:46:19;;;;;;;12.93;1.82;;;;;;;20.63;29.22;99019.11;2151542;82;21111;-81
2021/05/26 09:49:22;;;;;;;6.28;2.10;;;;;;;20.65;31.25;99009.79;2150801;82;21051;-82
2021/05/26 09:52:22;;;;;;;6.78;1.85;;;;;;;20.44;31.04;99020.95;2150455;82;21011;-84
2021/05/26 09:55:23;;;;;;;4.92;1.55;;;;;;;20.31;31.86;99004.45;2149948;83;20960;-81
2021/05/26 09:58:24;;;;;;;4.20;1.80;;;;;;;20.10;31.73;99012.47;2150359;82;21071;-82
2021/05/26 10:01:25;;;;;;;4.55;1.27;;;;;;;20.13;31.27;98995.17;2150666;83;20960;-82
2021/05/26 10:04:26;;;;;;;12.50;2.02;;;;;;;20.55;31.77;98999.00;2150881;82;21047;-81
2021/05/26 10:07:28;;;;;;;16.32;2.72;;;;;;;20.84;31.05;98995.16;2151371;82;21055;-81
2021/05/26 10:10:29;;;;;;;4.67;1.62;;;;;;;21.22;29.17;98988.81;2151442;82;20932;-81
2021/05/26 10:13:30;;;;;;;3.37;1.22;;;;;;;21.74;29.10;98993.05;2150701;82;20984;-80
2021/05/26 10:16:32;;;;;;;4.05;1.20;;;;;;;21.94;29.30;98978.67;2150388;82;21139;-83
2021/05/26 10:19:33;;;;;;;5.22;1.52;;;;;;;21.95;27.82;98977.77;2150921;83;20968;-81
2021/05/26 10:22:34;;;;;;;2.47;1.35;;;;;;;22.03;28.95;98983.73;2150439;83;20967;-83
2021/05/26 10:25:35;;;;;;;5.75;1.37;;;;;;;21.85;27.77;98976.31;2150757;83;21353;-82
2021/05/26 10:28:36;;;;;;;9.80;1.90;;;;;;;21.50;28.63;98976.91;2150765;82;21032;-82
2021/05/26 10:31:37;;;;;;;5.05;1.40;;;;;;;21.49;28.71;98975.62;2150725;83;20908;-82
2021/05/26 10:34:38;;;;;;;6.53;1.75;;;;;;;21.51;28.47;98978.66;2150942;83;20940;-82
2021/05/26 10:37:40;;;;;;;5.70;1.87;;;;;;;21.86;28.52;98981.58;2150843;82;21035;-82
2021/05/26 10:40:43;;;;;;;5.12;2.00;;;;;;;22.09;27.58;98966.26;2134697;83;20990;-81
2021/05/26 10:43:46;;;;;;;11.33;1.57;;;;;;;22.30;28.67;98956.70;2135134;83;20932;-82
2021/05/26 10:46:49;;;;;;;9.83;2.05;;;;;;;22.67;27.53;98951.00;2150536;82;21031;-80
2021/05/26 10:49:49;;;;;;;5.25;1.60;;;;;;;22.88;26.93;98958.25;2150083;82;20948;-81
2021/05/26 10:52:50;;;;;;;3.35;1.57;;;;;;;23.02;27.97;98959.08;2149910;82;20964;-82
2021/05/26 10:55:51;;;;;;;4.72;1.60;;;;;;;22.91;26.84;98954.61;2150140;82;21044;-81
2021/05/26 10:58:52;;;;;;;3.80;1.75;;;;;;;22.93;27.26;98947.91;2150783;82;20992;-80
2021/05/26 11:01:53;;;;;;;16.32;1.80;;;;;;;23.15;26.05;98948.84;2150116;83;21007;-80
2021/05/26 11:04:54;;;;;;;9.15;1.72;;;;;;;22.70;26.79;98936.72;2150179;82;20927;-83
2021/05/26 11:08:01;;;;;;;3.92;1.40;;;;;;;22.65;27.29;98938.22;2150567;83;20991;-83
2021/05/26 11:11:03;;;;;;;16.67;2.45;;;;;;;22.62;25.90;98934.80;2149037;82;20994;-80
2021/05/26 11:14:04;;;;;;;5.22;1.57;;;;;;;22.50;25.53;98922.77;2150063;82;20960;-83
2021/05/26 11:17:06;;;;;;;4.35;1.80;;;;;;;22.57;26.17;98922.98;2148017;83;21110;-81
2021/05/26 11:20:07;;;;;;;3.08;1.42;;;;;;;22.72;26.07;98918.91;2147531;83;20948;-79
2021/05/26 11:23:08;;;;;;;4.47;1.67;;;;;;;23.05;26.10;98910.18;2140037;83;20958;-78
2021/05/26 11:26:09;;;;;;;14.90;2.00;;;;;;;23.05;27.21;98903.52;2140758;83;20938;-81
2021/05/26 11:29:10;;;;;;;9.05;1.72;;;;;;;23.10;27.07;98910.41;2141477;83;20994;-80
2021/05/26 11:32:11;;;;;;;5.70;1.77;;;;;;;23.41;26.28;98907.47;2114276;84;21344;-79
2021/05/26 11:35:12;;;;;;;3.42;1.52;;;;;;;23.41;26.28;98915.46;2150942;83;20949;-80
2021/05/26 11:38:13;;;;;;;4.37;1.57;;;;;;;23.75;25.15;98906.16;2150953;83;20984;-79
2021/05/26 11:41:14;;;;;;;7.15;1.40;;;;;;;23.85;25.54;98902.19;2150995;83;21311;-80
2021/05/26 11:44:15;;;;;;;9.25;1.55;;;;;;;23.90;24.76;98896.20;2150861;83;21004;-77
2021/05/26 11:47:16;;;;;;;8.10;1.50;;;;;;;23.86;24.76;98890.59;2149540;83;21104;-80
2021/05/26 11:50:19;;;;;;;8.35;1.70;;;;;;;23.81;25.09;98896.11;2151412;83;21020;-79
2021/05/26 11:53:20;;;;;;;5.03;1.50;;;;;;;23.72;23.44;98886.30;2151488;83;20935;-80
2021/05/26 11:56:21;;;;;;;5.62;1.57;;;;;;;23.73;25.05;98884.03;2151082;83;20941;-80
2021/05/26 11:59:22;;;;;;;2.12;1.30;;;;;;;23.57;24.21;98879.79;2151351;83;20984;-79
2021/05/26 12:02:23;;;;;;;6.40;1.82;;;;;;;23.56;24.12;98878.52;2150836;83;20961;-81
2021/05/26 12:05:24;;;;;;;3.58;1.40;;;;;;;23.27;24.97;98888.46;2150831;83;20992;-81
2021/05/26 12:08:25;;;;;;;5.20;1.40;;;;;;;22.99;25.05;98893.11;2151409;83;20941;-80
2021/05/26 12:11:30;;;;;;;5.65;1.72;;;;;;;22.84;25.23;98890.09;2151381;83;21641;-80
2021/05/26 12:14:30;;;;;;;7.37;1.60;;;;;;;23.03;24.13;98880.95;2150850;82;21036;-79
2021/05/26 12:17:31;;;;;;;2.70;1.55;;;;;;;23.43;24.31;98877.64;2148698;82;21065;-79
2021/05/26 12:20:32;;;;;;;6.30;2.58;;;;;;;23.51;23.75;98888.00;2149175;83;20899;-81
2021/05/26 12:23:33;;;;;;;18.02;2.15;;;;;;;23.56;23.40;98872.73;2149028;82;21050;-80
2021/05/26 12:26:37;;;;;;;3.75;1.32;;;;;;;23.63;24.47;98873.34;2148269;82;20974;-79
2021/05/26 12:29:38;;;;;;;25.50;2.50;;;;;;;23.81;25.62;98868.59;2148656;82;20994;-79
2021/05/26 12:32:39;;;;;;;4.20;1.60;;;;;;;23.91;25.00;98859.75;2149140;82;21006;-80
2021/05/26 12:35:41;;;;;;;4.15;1.70;;;;;;;23.95;24.61;98862.69;2148683;83;20981;-80
2021/05/26 12:38:42;;;;;;;5.12;1.70;;;;;;;23.81;25.09;98855.27;2147760;82;21030;-80
2021/05/26 12:41:43;;;;;;;4.70;1.62;;;;;;;23.57;25.28;98849.61;2148688;82;21066;-79
2021/05/26 12:44:44;;;;;;;6.05;1.60;;;;;;;23.38;24.85;98842.30;2148214;83;21615;-79
2021/05/26 12:47:45;;;;;;;8.08;1.55;;;;;;;23.27;25.56;98849.84;2147766;83;21101;-80
2021/05/26 12:50:46;;;;;;;7.65;1.50;;;;;;;23.40;25.20;98850.23;2147319;82;21077;-78
2021/05/26 12:53:47;;;;;;;3.15;1.80;;;;;;;23.36;24.62;98854.81;2147763;83;21006;-79
2021/05/26 12:56:48;;;;;;;7.33;1.80;;;;;;;23.32;24.74;98850.53;2146828;82;21398;-78
2021/05/26 12:59:49;;;;;;;4.50;1.92;;;;;;;23.06;25.64;98847.56;2147140;83;21343;-79
2021/05/26 13:02:51;;;;;;;3.62;1.85;;;;;;;23.49;25.07;98838.77;2147561;83;21037;-80
2021/05/26 13:05:53;;;;;;;5.67;2.00;;;;;;;23.83;24.53;98834.75;2147203;82;21354;-79
2021/05/26 13:08:55;;;;;;;9.65;2.02;;;;;;;23.78;24.46;98836.27;2147552;82;20993;-79
2021/05/26 13:11:56;;;;;;;8.05;2.55;;;;;;;23.48;25.25;98838.37;2147629;83;21002;-78
2021/05/26 13:14:56;;;;;;;4.03;1.70;;;;;;;23.31;25.35;98834.61;2147452;82;21025;-79
2021/05/26 13:17:58;;;;;;;7.72;2.08;;;;;;;23.71;25.30;98826.80;2148053;83;20994;-79
2021/05/26 13:20:59;;;;;;;2.95;1.30;;;;;;;23.95;24.97;98822.70;2147613;83;20986;-79
2021/05/26 13:24:00;;;;;;;4.65;1.65;;;;;;;23.48;24.52;98816.19;2148097;82;21018;-79
2021/05/26 13:27:01;;;;;;;4.67;1.80;;;;;;;22.95;24.71;98821.81;2147921;82;20954;-79
2021/05/26 13:30:02;;;;;;;5.85;1.62;;;;;;;22.81;25.63;98820.15;2147581;82;20967;-79
2021/05/26 13:33:03;;;;;;;7.37;1.57;;;;;;;23.07;24.96;98808.49;2147574;82;20942;-79
2021/05/26 13:36:04;;;;;;;2.95;1.52;;;;;;;22.68;25.80;98807.73;2147335;82;21216;-78
2021/05/26 13:39:05;;;;;;;17.98;2.20;;;;;;;22.20;26.76;98809.91;2146906;83;20954;-80
2021/05/26 13:42:06;;;;;;;5.17;1.67;;;;;;;22.17;27.36;98812.67;2146907;82;21037;-79
2021/05/26 13:45:07;;;;;;;8.53;1.77;;;;;;;22.01;26.43;98806.59;2148072;83;21017;-79
2021/05/26 13:48:10;;;;;;;3.80;1.60;;;;;;;21.92;27.03;98799.81;2147871;82;21064;-78
2021/05/26 13:51:10;;;;;;;3.72;1.80;;;;;;;21.93;27.11;98801.55;2147738;82;20962;-78
2021/05/26 13:54:11;;;;;;;5.95;1.60;;;;;;;22.04;26.72;98799.41;2147884;82;20994;-80
2021/05/26 13:57:12;;;;;;;17.73;2.30;;;;;;;22.10;26.25;98798.33;2148328;82;20955;-79
2021/05/26 14:00:13;;;;;;;10.08;1.82;;;;;;;21.98;27.18;98792.95;2147555;82;21016;-77
2021/05/26 14:03:14;;;;;;;10.85;2.15;;;;;;;21.93;27.07;98789.13;2147398;83;20967;-79
2021/05/26 14:06:15;;;;;;;2.95;1.67;;;;;;;21.74;27.77;98787.16;2148446;82;21401;-79
2021/05/26 14:09:16;;;;;;;1.92;1.67;;;;;;;22.15;27.96;98785.28;2148011;82;21441;-79
2021/05/26 14:12:17;;;;;;;3.58;1.72;;;;;;;22.66;26.59;98778.99;2147787;82;21010;-79
2021/05/26 14:15:18;;;;;;;8.28;1.70;;;;;;;22.59;26.00;98773.96;2147719;81;21006;-79